sensor_id;sensor_type;location;lat;lon;timestamp;P1;durP1;ratioP1;P2;durP2;ratioP2
29370;SDS011;16357;52.188;7.838;2022-07-01T00:00:27;2.35;;;1.00;;
29370;SDS011;16357;52.188;7.838;2022-07-01T00:02:53;2.60;;;1.00;;
29370;SDS011;16357;52.188;7.838;2022-07-01T00:05:20;1.13;;;0.90;;
29370;SDS011;16357;52.188;7.838;2022-07-01T00:07:46;1.83;;;1.20;;
29370;SDS011;16357;52.188;7.838;2022-07-01T00:10:13;2.80;;;1.08;;
29370;SDS011;16357;52.188;7.838;2022-07-01T00:12:40;3.35;;;1.50;;
29370;SDS011;16357;52.188;7.838;2022-07-01T00:15:06;2.20;;;1.20;;
29370;SDS011;16357;52.188;7.838;2022-07-01T00:17:35;2.70;;;1.40;;
29370;SDS011;16357;52.188;7.838;2022-07-01T00:20:03;2.78;;;1.40;;
29370;SDS011;16357;52.188;7.838;2022-07-01T00:22:30;2.78;;;1.40;;
29370;SDS011;16357;52.188;7.838;2022-07-01T00:24:56;2.58;;;1.13;;
29370;SDS011;16357;52.188;7.838;2022-07-01T00:27:23;3.22;;;1.30;;
29370;SDS011;16357;52.188;7.838;2022-07-01T00:29:49;2.85;;;1.30;;
29370;SDS011;16357;52.188;7.838;2022-07-01T00:32:16;3.60;;;1.17;;
29370;SDS011;16357;52.188;7.838;2022-07-01T00:34:42;2.60;;;1.42;;
29370;SDS011;16357;52.188;7.838;2022-07-01T00:37:09;2.15;;;1.10;;
29370;SDS011;16357;52.188;7.838;2022-07-01T00:39:36;3.83;;;1.42;;
29370;SDS011;16357;52.188;7.838;2022-07-01T00:42:04;2.38;;;1.13;;
29370;SDS011;16357;52.188;7.838;2022-07-01T00:44:30;5.75;;;1.50;;
29370;SDS011;16357;52.188;7.838;2022-07-01T00:46:58;4.47;;;1.52;;
29370;SDS011;16357;52.188;7.838;2022-07-01T00:49:28;3.72;;;1.17;;
29370;SDS011;16357;52.188;7.838;2022-07-01T00:51:56;1.75;;;1.15;;
29370;SDS011;16357;52.188;7.838;2022-07-01T00:54:24;2.25;;;1.10;;
29370;SDS011;16357;52.188;7.838;2022-07-01T00:56:52;1.92;;;1.20;;
29370;SDS011;16357;52.188;7.838;2022-07-01T00:59:19;2.78;;;1.50;;
29370;SDS011;16357;52.188;7.838;2022-07-01T01:01:46;3.13;;;1.10;;
29370;SDS011;16357;52.188;7.838;2022-07-01T01:04:12;2.08;;;1.23;;
29370;SDS011;16357;52.188;7.838;2022-07-01T01:06:39;2.17;;;1.13;;
29370;SDS011;16357;52.188;7.838;2022-07-01T01:09:06;2.75;;;1.40;;
29370;SDS011;16357;52.188;7.838;2022-07-01T01:11:32;3.83;;;1.25;;
29370;SDS011;16357;52.188;7.838;2022-07-01T01:13:59;4.05;;;1.40;;
29370;SDS011;16357;52.188;7.838;2022-07-01T01:16:25;2.03;;;1.40;;
29370;SDS011;16357;52.188;7.838;2022-07-01T01:18:52;2.85;;;1.60;;
29370;SDS011;16357;52.188;7.838;2022-07-01T01:21:19;4.00;;;1.92;;
29370;SDS011;16357;52.188;7.838;2022-07-01T01:23:46;1.73;;;1.20;;
29370;SDS011;16357;52.188;7.838;2022-07-01T01:26:19;3.08;;;1.73;;
29370;SDS011;16357;52.188;7.838;2022-07-01T01:28:48;2.53;;;1.80;;
29370;SDS011;16357;52.188;7.838;2022-07-01T01:31:16;4.70;;;1.30;;
29370;SDS011;16357;52.188;7.838;2022-07-01T01:33:44;2.40;;;1.45;;
29370;SDS011;16357;52.188;7.838;2022-07-01T01:36:12;2.33;;;1.52;;
29370;SDS011;16357;52.188;7.838;2022-07-01T01:38:38;3.42;;;1.40;;
29370;SDS011;16357;52.188;7.838;2022-07-01T01:41:05;2.47;;;1.52;;
29370;SDS011;16357;52.188;7.838;2022-07-01T01:43:31;2.25;;;1.63;;
29370;SDS011;16357;52.188;7.838;2022-07-01T01:46:01;2.00;;;1.52;;
29370;SDS011;16357;52.188;7.838;2022-07-01T01:48:29;2.55;;;1.52;;
29370;SDS011;16357;52.188;7.838;2022-07-01T01:50:57;4.50;;;1.65;;
29370;SDS011;16357;52.188;7.838;2022-07-01T01:53:24;3.90;;;1.70;;
29370;SDS011;16357;52.188;7.838;2022-07-01T01:55:51;3.72;;;1.77;;
29370;SDS011;16357;52.188;7.838;2022-07-01T01:58:17;2.85;;;1.60;;
29370;SDS011;16357;52.188;7.838;2022-07-01T02:00:44;2.53;;;1.50;;
29370;SDS011;16357;52.188;7.838;2022-07-01T02:03:10;3.00;;;1.73;;
29370;SDS011;16357;52.188;7.838;2022-07-01T02:05:37;7.65;;;1.80;;
29370;SDS011;16357;52.188;7.838;2022-07-01T02:08:07;2.05;;;1.88;;
29370;SDS011;16357;52.188;7.838;2022-07-01T02:10:34;4.15;;;2.22;;
29370;SDS011;16357;52.188;7.838;2022-07-01T02:13:01;4.72;;;2.30;;
29370;SDS011;16357;52.188;7.838;2022-07-01T02:15:27;4.63;;;2.72;;
29370;SDS011;16357;52.188;7.838;2022-07-01T02:17:53;4.75;;;3.30;;
29370;SDS011;16357;52.188;7.838;2022-07-01T02:20:22;3.17;;;2.83;;
29370;SDS011;16357;52.188;7.838;2022-07-01T02:22:49;3.65;;;3.08;;
29370;SDS011;16357;52.188;7.838;2022-07-01T02:25:17;3.25;;;2.58;;
29370;SDS011;16357;52.188;7.838;2022-07-01T02:27:45;3.63;;;3.13;;
29370;SDS011;16357;52.188;7.838;2022-07-01T02:30:12;3.42;;;2.97;;
29370;SDS011;16357;52.188;7.838;2022-07-01T02:32:38;7.05;;;3.10;;
29370;SDS011;16357;52.188;7.838;2022-07-01T02:35:05;3.88;;;3.22;;
29370;SDS011;16357;52.188;7.838;2022-07-01T02:37:32;5.32;;;3.28;;
29370;SDS011;16357;52.188;7.838;2022-07-01T02:40:00;4.22;;;3.63;;
29370;SDS011;16357;52.188;7.838;2022-07-01T02:42:27;4.60;;;3.33;;
29370;SDS011;16357;52.188;7.838;2022-07-01T02:44:54;4.70;;;3.55;;
29370;SDS011;16357;52.188;7.838;2022-07-01T02:47:21;7.15;;;3.75;;
29370;SDS011;16357;52.188;7.838;2022-07-01T02:49:48;3.88;;;3.20;;
29370;SDS011;16357;52.188;7.838;2022-07-01T02:52:15;6.55;;;3.40;;
29370;SDS011;16357;52.188;7.838;2022-07-01T02:54:42;4.97;;;3.80;;
29370;SDS011;16357;52.188;7.838;2022-07-01T02:57:09;4.22;;;3.78;;
29370;SDS011;16357;52.188;7.838;2022-07-01T02:59:35;5.63;;;3.83;;
29370;SDS011;16357;52.188;7.838;2022-07-01T03:02:02;4.90;;;3.85;;
29370;SDS011;16357;52.188;7.838;2022-07-01T03:04:29;5.03;;;3.67;;
29370;SDS011;16357;52.188;7.838;2022-07-01T03:06:56;7.75;;;4.20;;
29370;SDS011;16357;52.188;7.838;2022-07-01T03:09:23;6.85;;;4.57;;
29370;SDS011;16357;52.188;7.838;2022-07-01T03:11:49;8.27;;;4.72;;
29370;SDS011;16357;52.188;7.838;2022-07-01T03:14:16;6.55;;;4.63;;
29370;SDS011;16357;52.188;7.838;2022-07-01T03:16:43;5.28;;;4.53;;
29370;SDS011;16357;52.188;7.838;2022-07-01T03:19:09;5.90;;;4.47;;
29370;SDS011;16357;52.188;7.838;2022-07-01T03:21:36;7.03;;;5.00;;
29370;SDS011;16357;52.188;7.838;2022-07-01T03:24:02;5.78;;;4.55;;
29370;SDS011;16357;52.188;7.838;2022-07-01T03:26:29;7.07;;;5.15;;
29370;SDS011;16357;52.188;7.838;2022-07-01T03:29:03;5.80;;;5.28;;
29370;SDS011;16357;52.188;7.838;2022-07-01T03:31:29;6.00;;;5.00;;
29370;SDS011;16357;52.188;7.838;2022-07-01T03:33:57;6.05;;;5.45;;
29370;SDS011;16357;52.188;7.838;2022-07-01T03:36:24;6.95;;;6.25;;
29370;SDS011;16357;52.188;7.838;2022-07-01T03:38:51;6.40;;;5.68;;
29370;SDS011;16357;52.188;7.838;2022-07-01T03:41:17;7.25;;;6.53;;
29370;SDS011;16357;52.188;7.838;2022-07-01T03:43:44;8.10;;;6.38;;
29370;SDS011;16357;52.188;7.838;2022-07-01T03:46:10;7.32;;;6.18;;
29370;SDS011;16357;52.188;7.838;2022-07-01T03:48:38;8.00;;;6.15;;
29370;SDS011;16357;52.188;7.838;2022-07-01T03:51:07;8.65;;;6.50;;
29370;SDS011;16357;52.188;7.838;2022-07-01T03:53:34;8.60;;;6.35;;
29370;SDS011;16357;52.188;7.838;2022-07-01T03:56:19;9.20;;;6.28;;
29370;SDS011;16357;52.188;7.838;2022-07-01T03:58:46;7.85;;;7.05;;
29370;SDS011;16357;52.188;7.838;2022-07-01T04:01:13;9.27;;;7.85;;
29370;SDS011;16357;52.188;7.838;2022-07-01T04:03:39;12.45;;;8.65;;
29370;SDS011;16357;52.188;7.838;2022-07-01T04:06:06;9.85;;;8.85;;
29370;SDS011;16357;52.188;7.838;2022-07-01T04:08:33;11.20;;;10.10;;
29370;SDS011;16357;52.188;7.838;2022-07-01T04:11:00;9.98;;;9.00;;
29370;SDS011;16357;52.188;7.838;2022-07-01T04:13:26;9.48;;;8.57;;
29370;SDS011;16357;52.188;7.838;2022-07-01T04:15:57;10.68;;;9.57;;
29370;SDS011;16357;52.188;7.838;2022-07-01T04:18:24;12.77;;;10.52;;
29370;SDS011;16357;52.188;7.838;2022-07-01T04:20:50;11.10;;;10.00;;
29370;SDS011;16357;52.188;7.838;2022-07-01T04:23:36;12.02;;;10.48;;
29370;SDS011;16357;52.188;7.838;2022-07-01T04:26:03;10.93;;;9.80;;
29370;SDS011;16357;52.188;7.838;2022-07-01T04:28:50;12.60;;;10.10;;
29370;SDS011;16357;52.188;7.838;2022-07-01T04:31:17;13.13;;;10.10;;
29370;SDS011;16357;52.188;7.838;2022-07-01T04:33:45;11.23;;;10.02;;
29370;SDS011;16357;52.188;7.838;2022-07-01T04:36:13;13.93;;;11.30;;
29370;SDS011;16357;52.188;7.838;2022-07-01T04:38:39;12.82;;;10.38;;
29370;SDS011;16357;52.188;7.838;2022-07-01T04:41:06;13.48;;;10.45;;
29370;SDS011;16357;52.188;7.838;2022-07-01T04:43:51;10.15;;;9.00;;
29370;SDS011;16357;52.188;7.838;2022-07-01T04:46:17;11.15;;;10.02;;
29370;SDS011;16357;52.188;7.838;2022-07-01T04:48:44;11.00;;;9.90;;
29370;SDS011;16357;52.188;7.838;2022-07-01T04:51:10;11.02;;;9.88;;
29370;SDS011;16357;52.188;7.838;2022-07-01T04:53:37;11.63;;;10.32;;
29370;SDS011;16357;52.188;7.838;2022-07-01T04:56:03;13.02;;;10.13;;
29370;SDS011;16357;52.188;7.838;2022-07-01T04:58:30;11.93;;;10.73;;
29370;SDS011;16357;52.188;7.838;2022-07-01T05:00:57;12.93;;;11.25;;
29370;SDS011;16357;52.188;7.838;2022-07-01T05:03:23;11.88;;;10.63;;
29370;SDS011;16357;52.188;7.838;2022-07-01T05:05:50;12.02;;;10.68;;
29370;SDS011;16357;52.188;7.838;2022-07-01T05:08:16;12.65;;;11.20;;
29370;SDS011;16357;52.188;7.838;2022-07-01T05:10:43;12.82;;;11.15;;
29370;SDS011;16357;52.188;7.838;2022-07-01T05:13:09;13.27;;;11.88;;
29370;SDS011;16357;52.188;7.838;2022-07-01T05:15:35;12.95;;;11.32;;
29370;SDS011;16357;52.188;7.838;2022-07-01T05:18:02;12.65;;;11.30;;
29370;SDS011;16357;52.188;7.838;2022-07-01T05:20:47;13.40;;;11.98;;
29370;SDS011;16357;52.188;7.838;2022-07-01T05:23:35;15.57;;;12.48;;
29370;SDS011;16357;52.188;7.838;2022-07-01T05:26:02;15.85;;;13.13;;
29370;SDS011;16357;52.188;7.838;2022-07-01T05:28:29;15.77;;;12.52;;
29370;SDS011;16357;52.188;7.838;2022-07-01T05:30:56;16.42;;;12.48;;
29370;SDS011;16357;52.188;7.838;2022-07-01T05:33:23;16.42;;;13.25;;
29370;SDS011;16357;52.188;7.838;2022-07-01T05:35:52;15.98;;;13.45;;
29370;SDS011;16357;52.188;7.838;2022-07-01T05:38:19;14.88;;;12.82;;
29370;SDS011;16357;52.188;7.838;2022-07-01T05:40:46;17.02;;;13.77;;
29370;SDS011;16357;52.188;7.838;2022-07-01T05:43:12;16.80;;;13.43;;
29370;SDS011;16357;52.188;7.838;2022-07-01T05:45:39;15.85;;;13.15;;
29370;SDS011;16357;52.188;7.838;2022-07-01T05:48:05;15.07;;;12.20;;
29370;SDS011;16357;52.188;7.838;2022-07-01T05:50:32;16.38;;;14.30;;
29370;SDS011;16357;52.188;7.838;2022-07-01T05:52:59;16.30;;;13.35;;
29370;SDS011;16357;52.188;7.838;2022-07-01T05:55:25;19.13;;;12.82;;
29370;SDS011;16357;52.188;7.838;2022-07-01T05:57:52;15.73;;;12.27;;
29370;SDS011;16357;52.188;7.838;2022-07-01T06:00:18;15.57;;;12.65;;
29370;SDS011;16357;52.188;7.838;2022-07-01T06:02:45;15.80;;;12.60;;
29370;SDS011;16357;52.188;7.838;2022-07-01T06:05:12;17.15;;;12.90;;
29370;SDS011;16357;52.188;7.838;2022-07-01T06:07:41;17.77;;;14.70;;
29370;SDS011;16357;52.188;7.838;2022-07-01T06:10:08;20.42;;;14.73;;
29370;SDS011;16357;52.188;7.838;2022-07-01T06:12:38;15.63;;;13.05;;
29370;SDS011;16357;52.188;7.838;2022-07-01T06:15:06;16.33;;;13.48;;
29370;SDS011;16357;52.188;7.838;2022-07-01T06:17:34;17.02;;;14.45;;
29370;SDS011;16357;52.188;7.838;2022-07-01T06:20:01;18.20;;;14.52;;
29370;SDS011;16357;52.188;7.838;2022-07-01T06:22:29;17.92;;;13.52;;
29370;SDS011;16357;52.188;7.838;2022-07-01T06:24:55;18.90;;;14.00;;
29370;SDS011;16357;52.188;7.838;2022-07-01T06:27:22;16.67;;;13.30;;
29370;SDS011;16357;52.188;7.838;2022-07-01T06:29:50;16.20;;;13.00;;
29370;SDS011;16357;52.188;7.838;2022-07-01T06:32:17;15.60;;;12.23;;
29370;SDS011;16357;52.188;7.838;2022-07-01T06:34:44;16.45;;;13.23;;
29370;SDS011;16357;52.188;7.838;2022-07-01T06:37:10;16.35;;;13.02;;
29370;SDS011;16357;52.188;7.838;2022-07-01T06:39:37;15.27;;;12.52;;
29370;SDS011;16357;52.188;7.838;2022-07-01T06:42:04;16.88;;;13.23;;
29370;SDS011;16357;52.188;7.838;2022-07-01T06:44:31;15.50;;;12.82;;
29370;SDS011;16357;52.188;7.838;2022-07-01T06:46:57;14.80;;;12.43;;
29370;SDS011;16357;52.188;7.838;2022-07-01T06:49:24;15.90;;;11.63;;
29370;SDS011;16357;52.188;7.838;2022-07-01T06:51:51;16.85;;;10.25;;
29370;SDS011;16357;52.188;7.838;2022-07-01T06:54:18;13.02;;;10.95;;
29370;SDS011;16357;52.188;7.838;2022-07-01T06:56:44;13.18;;;10.70;;
29370;SDS011;16357;52.188;7.838;2022-07-01T06:59:11;11.10;;;9.80;;
29370;SDS011;16357;52.188;7.838;2022-07-01T07:01:37;15.50;;;10.05;;
29370;SDS011;16357;52.188;7.838;2022-07-01T07:04:04;11.23;;;9.20;;
29370;SDS011;16357;52.188;7.838;2022-07-01T07:06:30;18.52;;;9.05;;
29370;SDS011;16357;52.188;7.838;2022-07-01T07:08:57;10.80;;;7.70;;
29370;SDS011;16357;52.188;7.838;2022-07-01T07:11:23;13.02;;;7.18;;
29370;SDS011;16357;52.188;7.838;2022-07-01T07:13:51;39.58;;;11.07;;
29370;SDS011;16357;52.188;7.838;2022-07-01T07:16:17;39.10;;;9.63;;
29370;SDS011;16357;52.188;7.838;2022-07-01T07:18:47;12.20;;;6.70;;
29370;SDS011;16357;52.188;7.838;2022-07-01T07:21:15;9.48;;;6.90;;
29370;SDS011;16357;52.188;7.838;2022-07-01T07:23:42;11.27;;;6.85;;
29370;SDS011;16357;52.188;7.838;2022-07-01T07:26:09;10.02;;;6.80;;
29370;SDS011;16357;52.188;7.838;2022-07-01T07:28:36;9.82;;;6.07;;
29370;SDS011;16357;52.188;7.838;2022-07-01T07:31:02;8.02;;;6.03;;
29370;SDS011;16357;52.188;7.838;2022-07-01T07:33:29;8.50;;;5.97;;
29370;SDS011;16357;52.188;7.838;2022-07-01T07:35:55;10.23;;;5.63;;
29370;SDS011;16357;52.188;7.838;2022-07-01T07:38:22;8.60;;;5.07;;
29370;SDS011;16357;52.188;7.838;2022-07-01T07:40:49;10.25;;;5.72;;
29370;SDS011;16357;52.188;7.838;2022-07-01T07:43:15;12.02;;;5.72;;
29370;SDS011;16357;52.188;7.838;2022-07-01T07:45:42;14.95;;;5.25;;
29370;SDS011;16357;52.188;7.838;2022-07-01T07:48:09;39.45;;;7.45;;
29370;SDS011;16357;52.188;7.838;2022-07-01T07:50:36;14.63;;;6.32;;
29370;SDS011;16357;52.188;7.838;2022-07-01T07:53:02;13.48;;;6.57;;
29370;SDS011;16357;52.188;7.838;2022-07-01T07:55:29;14.35;;;6.45;;
29370;SDS011;16357;52.188;7.838;2022-07-01T07:57:56;61.10;;;10.00;;
29370;SDS011;16357;52.188;7.838;2022-07-01T08:00:22;16.77;;;6.70;;
29370;SDS011;16357;52.188;7.838;2022-07-01T08:02:49;16.40;;;6.93;;
29370;SDS011;16357;52.188;7.838;2022-07-01T08:05:15;9.75;;;7.00;;
29370;SDS011;16357;52.188;7.838;2022-07-01T08:07:42;7.82;;;6.65;;
29370;SDS011;16357;52.188;7.838;2022-07-01T08:10:10;11.52;;;6.15;;
29370;SDS011;16357;52.188;7.838;2022-07-01T08:12:38;23.45;;;7.80;;
29370;SDS011;16357;52.188;7.838;2022-07-01T08:15:05;12.70;;;6.35;;
29370;SDS011;16357;52.188;7.838;2022-07-01T08:17:32;8.35;;;6.05;;
29370;SDS011;16357;52.188;7.838;2022-07-01T08:19:59;8.68;;;6.72;;
29370;SDS011;16357;52.188;7.838;2022-07-01T08:22:25;6.45;;;5.43;;
29370;SDS011;16357;52.188;7.838;2022-07-01T08:24:52;8.38;;;5.97;;
29370;SDS011;16357;52.188;7.838;2022-07-01T08:27:18;10.20;;;5.50;;
29370;SDS011;16357;52.188;7.838;2022-07-01T08:29:45;14.27;;;5.40;;
29370;SDS011;16357;52.188;7.838;2022-07-01T08:32:11;6.28;;;5.68;;
29370;SDS011;16357;52.188;7.838;2022-07-01T08:34:38;10.27;;;5.97;;
29370;SDS011;16357;52.188;7.838;2022-07-01T08:37:05;7.18;;;5.18;;
29370;SDS011;16357;52.188;7.838;2022-07-01T08:39:32;5.68;;;5.15;;
29370;SDS011;16357;52.188;7.838;2022-07-01T08:41:58;6.10;;;4.90;;
29370;SDS011;16357;52.188;7.838;2022-07-01T08:44:25;7.20;;;4.93;;
29370;SDS011;16357;52.188;7.838;2022-07-01T08:46:52;8.20;;;4.78;;
29370;SDS011;16357;52.188;7.838;2022-07-01T08:49:18;6.47;;;4.13;;
29370;SDS011;16357;52.188;7.838;2022-07-01T08:51:47;9.27;;;5.10;;
29370;SDS011;16357;52.188;7.838;2022-07-01T08:54:14;6.88;;;4.50;;
29370;SDS011;16357;52.188;7.838;2022-07-01T08:56:40;7.10;;;4.28;;
29370;SDS011;16357;52.188;7.838;2022-07-01T08:59:10;10.10;;;4.25;;
29370;SDS011;16357;52.188;7.838;2022-07-01T09:01:54;7.65;;;4.40;;
29370;SDS011;16357;52.188;7.838;2022-07-01T09:04:22;6.00;;;3.72;;
29370;SDS011;16357;52.188;7.838;2022-07-01T09:06:49;6.25;;;3.63;;
29370;SDS011;16357;52.188;7.838;2022-07-01T09:09:17;4.15;;;3.47;;
29370;SDS011;16357;52.188;7.838;2022-07-01T09:11:48;6.85;;;3.70;;
29370;SDS011;16357;52.188;7.838;2022-07-01T09:14:23;5.53;;;3.88;;
29370;SDS011;16357;52.188;7.838;2022-07-01T09:16:52;6.20;;;3.65;;
29370;SDS011;16357;52.188;7.838;2022-07-01T09:19:21;5.55;;;3.72;;
29370;SDS011;16357;52.188;7.838;2022-07-01T09:21:53;5.75;;;3.88;;
29370;SDS011;16357;52.188;7.838;2022-07-01T09:26:54;4.82;;;3.55;;
29370;SDS011;16357;52.188;7.838;2022-07-01T09:29:36;5.82;;;4.07;;
29370;SDS011;16357;52.188;7.838;2022-07-01T09:32:06;6.22;;;4.50;;
29370;SDS011;16357;52.188;7.838;2022-07-01T09:34:35;6.57;;;3.78;;
29370;SDS011;16357;52.188;7.838;2022-07-01T09:37:07;4.85;;;3.75;;
29370;SDS011;16357;52.188;7.838;2022-07-01T09:39:43;5.35;;;3.80;;
29370;SDS011;16357;52.188;7.838;2022-07-01T09:42:15;4.45;;;3.55;;
29370;SDS011;16357;52.188;7.838;2022-07-01T09:47:48;4.95;;;3.38;;
29370;SDS011;16357;52.188;7.838;2022-07-01T09:50:14;5.75;;;3.58;;
29370;SDS011;16357;52.188;7.838;2022-07-01T09:52:41;4.85;;;3.58;;
29370;SDS011;16357;52.188;7.838;2022-07-01T09:55:07;6.18;;;3.45;;
29370;SDS011;16357;52.188;7.838;2022-07-01T09:57:34;6.20;;;2.83;;
29370;SDS011;16357;52.188;7.838;2022-07-01T10:00:03;4.00;;;2.88;;
29370;SDS011;16357;52.188;7.838;2022-07-01T10:02:30;4.82;;;2.60;;
29370;SDS011;16357;52.188;7.838;2022-07-01T10:05:00;4.22;;;2.40;;
29370;SDS011;16357;52.188;7.838;2022-07-01T10:07:36;5.78;;;2.38;;
29370;SDS011;16357;52.188;7.838;2022-07-01T10:13:07;3.50;;;2.33;;
29370;SDS011;16357;52.188;7.838;2022-07-01T10:15:36;4.28;;;2.50;;
29370;SDS011;16357;52.188;7.838;2022-07-01T10:18:03;2.40;;;1.70;;
29370;SDS011;16357;52.188;7.838;2022-07-01T10:20:29;4.03;;;2.05;;
29370;SDS011;16357;52.188;7.838;2022-07-01T10:23:04;3.45;;;2.13;;
29370;SDS011;16357;52.188;7.838;2022-07-01T10:25:40;2.40;;;2.00;;
29370;SDS011;16357;52.188;7.838;2022-07-01T10:28:11;5.95;;;2.25;;
29370;SDS011;16357;52.188;7.838;2022-07-01T10:30:57;4.47;;;2.22;;
29370;SDS011;16357;52.188;7.838;2022-07-01T10:33:30;2.58;;;1.80;;
29370;SDS011;16357;52.188;7.838;2022-07-01T10:39:28;3.17;;;1.90;;
29370;SDS011;16357;52.188;7.838;2022-07-01T10:41:33;2.25;;;1.40;;
29370;SDS011;16357;52.188;7.838;2022-07-01T10:44:02;3.13;;;1.30;;
29370;SDS011;16357;52.188;7.838;2022-07-01T10:52:08;1.95;;;1.25;;
29370;SDS011;16357;52.188;7.838;2022-07-01T11:02:39;4.68;;;1.35;;
29370;SDS011;16357;52.188;7.838;2022-07-01T11:05:10;3.90;;;1.75;;
29370;SDS011;16357;52.188;7.838;2022-07-01T11:07:39;2.67;;;1.52;;
29370;SDS011;16357;52.188;7.838;2022-07-01T11:10:12;2.15;;;1.33;;
29370;SDS011;16357;52.188;7.838;2022-07-01T11:12:41;2.30;;;1.30;;
29370;SDS011;16357;52.188;7.838;2022-07-01T11:15:14;1.85;;;1.10;;
29370;SDS011;16357;52.188;7.838;2022-07-01T11:17:42;3.90;;;1.60;;
29370;SDS011;16357;52.188;7.838;2022-07-01T11:20:14;3.28;;;1.30;;
29370;SDS011;16357;52.188;7.838;2022-07-01T11:22:48;3.30;;;1.52;;
29370;SDS011;16357;52.188;7.838;2022-07-01T11:25:14;2.25;;;1.50;;
29370;SDS011;16357;52.188;7.838;2022-07-01T11:27:47;2.25;;;1.70;;
29370;SDS011;16357;52.188;7.838;2022-07-01T11:30:15;2.05;;;1.50;;
29370;SDS011;16357;52.188;7.838;2022-07-01T11:32:51;3.13;;;1.75;;
29370;SDS011;16357;52.188;7.838;2022-07-01T11:35:21;1.65;;;1.33;;
29370;SDS011;16357;52.188;7.838;2022-07-01T11:38:15;2.97;;;1.65;;
29370;SDS011;16357;52.188;7.838;2022-07-01T11:41:04;3.35;;;1.83;;
29370;SDS011;16357;52.188;7.838;2022-07-01T11:43:39;2.58;;;1.80;;
29370;SDS011;16357;52.188;7.838;2022-07-01T11:46:07;3.03;;;1.92;;
29370;SDS011;16357;52.188;7.838;2022-07-01T11:48:41;4.10;;;2.25;;
29370;SDS011;16357;52.188;7.838;2022-07-01T11:51:12;4.97;;;1.70;;
29370;SDS011;16357;52.188;7.838;2022-07-01T11:53:42;5.38;;;1.60;;
29370;SDS011;16357;52.188;7.838;2022-07-01T11:56:10;3.13;;;1.70;;
29370;SDS011;16357;52.188;7.838;2022-07-01T11:58:44;3.75;;;1.63;;
29370;SDS011;16357;52.188;7.838;2022-07-01T12:01:19;2.13;;;1.30;;
29370;SDS011;16357;52.188;7.838;2022-07-01T12:03:50;2.63;;;1.58;;
29370;SDS011;16357;52.188;7.838;2022-07-01T12:06:17;2.05;;;1.50;;
29370;SDS011;16357;52.188;7.838;2022-07-01T12:08:48;3.55;;;1.80;;
29370;SDS011;16357;52.188;7.838;2022-07-01T12:11:16;3.55;;;1.90;;
29370;SDS011;16357;52.188;7.838;2022-07-01T12:13:44;4.32;;;1.67;;
29370;SDS011;16357;52.188;7.838;2022-07-01T12:16:12;2.47;;;1.70;;
29370;SDS011;16357;52.188;7.838;2022-07-01T12:18:54;2.17;;;1.30;;
29370;SDS011;16357;52.188;7.838;2022-07-01T12:21:26;6.77;;;1.70;;
29370;SDS011;16357;52.188;7.838;2022-07-01T12:27:13;4.15;;;1.60;;
29370;SDS011;16357;52.188;7.838;2022-07-01T12:32:13;2.25;;;1.13;;
29370;SDS011;16357;52.188;7.838;2022-07-01T12:34:43;2.35;;;1.40;;
29370;SDS011;16357;52.188;7.838;2022-07-01T12:37:15;1.88;;;1.30;;
29370;SDS011;16357;52.188;7.838;2022-07-01T12:39:50;3.13;;;1.60;;
29370;SDS011;16357;52.188;7.838;2022-07-01T12:42:22;3.38;;;1.42;;
29370;SDS011;16357;52.188;7.838;2022-07-01T12:44:49;1.98;;;1.55;;
29370;SDS011;16357;52.188;7.838;2022-07-01T12:47:21;2.15;;;1.10;;
29370;SDS011;16357;52.188;7.838;2022-07-01T12:49:48;3.25;;;1.13;;
29370;SDS011;16357;52.188;7.838;2022-07-01T12:52:25;5.68;;;1.50;;
29370;SDS011;16357;52.188;7.838;2022-07-01T12:54:57;1.35;;;1.10;;
29370;SDS011;16357;52.188;7.838;2022-07-01T12:57:31;4.10;;;1.33;;
29370;SDS011;16357;52.188;7.838;2022-07-01T13:00:04;1.80;;;1.10;;
29370;SDS011;16357;52.188;7.838;2022-07-01T13:02:31;1.60;;;1.13;;
29370;SDS011;16357;52.188;7.838;2022-07-01T13:04:57;1.70;;;1.00;;
29370;SDS011;16357;52.188;7.838;2022-07-01T13:07:24;2.83;;;1.20;;
29370;SDS011;16357;52.188;7.838;2022-07-01T13:09:50;1.80;;;1.20;;
29370;SDS011;16357;52.188;7.838;2022-07-01T13:12:17;2.15;;;1.30;;
29370;SDS011;16357;52.188;7.838;2022-07-01T13:14:43;3.53;;;1.52;;
29370;SDS011;16357;52.188;7.838;2022-07-01T13:17:10;1.60;;;0.80;;
29370;SDS011;16357;52.188;7.838;2022-07-01T13:19:37;3.90;;;1.13;;
29370;SDS011;16357;52.188;7.838;2022-07-01T13:22:04;2.38;;;1.20;;
29370;SDS011;16357;52.188;7.838;2022-07-01T13:24:31;1.25;;;0.90;;
29370;SDS011;16357;52.188;7.838;2022-07-01T13:26:58;1.60;;;0.90;;
29370;SDS011;16357;52.188;7.838;2022-07-01T13:29:25;1.48;;;1.00;;
29370;SDS011;16357;52.188;7.838;2022-07-01T13:31:53;2.05;;;1.00;;
29370;SDS011;16357;52.188;7.838;2022-07-01T13:34:20;2.88;;;1.10;;
29370;SDS011;16357;52.188;7.838;2022-07-01T13:36:47;2.97;;;1.17;;
29370;SDS011;16357;52.188;7.838;2022-07-01T13:39:13;2.10;;;0.90;;
29370;SDS011;16357;52.188;7.838;2022-07-01T13:41:40;2.58;;;1.10;;
29370;SDS011;16357;52.188;7.838;2022-07-01T13:44:06;2.78;;;1.00;;
29370;SDS011;16357;52.188;7.838;2022-07-01T13:46:33;7.10;;;1.15;;
29370;SDS011;16357;52.188;7.838;2022-07-01T13:49:01;3.67;;;1.08;;
29370;SDS011;16357;52.188;7.838;2022-07-01T13:51:28;2.58;;;0.80;;
29370;SDS011;16357;52.188;7.838;2022-07-01T13:53:54;4.75;;;1.23;;
29370;SDS011;16357;52.188;7.838;2022-07-01T13:56:23;1.25;;;0.70;;
29370;SDS011;16357;52.188;7.838;2022-07-01T13:58:49;1.92;;;0.82;;
29370;SDS011;16357;52.188;7.838;2022-07-01T14:01:17;1.05;;;0.65;;
29370;SDS011;16357;52.188;7.838;2022-07-01T14:03:45;1.48;;;0.90;;
29370;SDS011;16357;52.188;7.838;2022-07-01T14:06:12;1.05;;;0.68;;
29370;SDS011;16357;52.188;7.838;2022-07-01T14:08:43;3.22;;;0.77;;
29370;SDS011;16357;52.188;7.838;2022-07-01T14:11:10;1.00;;;0.65;;
29370;SDS011;16357;52.188;7.838;2022-07-01T14:13:37;1.75;;;1.00;;
29370;SDS011;16357;52.188;7.838;2022-07-01T14:16:05;0.95;;;0.63;;
29370;SDS011;16357;52.188;7.838;2022-07-01T14:18:33;1.67;;;0.70;;
29370;SDS011;16357;52.188;7.838;2022-07-01T14:21:00;1.23;;;0.63;;
29370;SDS011;16357;52.188;7.838;2022-07-01T14:23:28;2.00;;;0.98;;
29370;SDS011;16357;52.188;7.838;2022-07-01T14:25:57;3.17;;;0.80;;
29370;SDS011;16357;52.188;7.838;2022-07-01T14:28:24;4.43;;;0.98;;
29370;SDS011;16357;52.188;7.838;2022-07-01T14:30:50;1.75;;;0.63;;
29370;SDS011;16357;52.188;7.838;2022-07-01T14:33:17;0.85;;;0.57;;
29370;SDS011;16357;52.188;7.838;2022-07-01T14:35:44;2.30;;;0.70;;
29370;SDS011;16357;52.188;7.838;2022-07-01T14:38:11;1.08;;;0.70;;
29370;SDS011;16357;52.188;7.838;2022-07-01T14:40:37;2.40;;;0.80;;
29370;SDS011;16357;52.188;7.838;2022-07-01T14:43:04;1.40;;;0.80;;
29370;SDS011;16357;52.188;7.838;2022-07-01T14:45:30;2.17;;;0.80;;
29370;SDS011;16357;52.188;7.838;2022-07-01T14:47:58;2.25;;;0.73;;
29370;SDS011;16357;52.188;7.838;2022-07-01T14:50:24;1.58;;;0.50;;
29370;SDS011;16357;52.188;7.838;2022-07-01T14:52:51;1.35;;;0.73;;
29370;SDS011;16357;52.188;7.838;2022-07-01T14:55:17;1.85;;;0.60;;
29370;SDS011;16357;52.188;7.838;2022-07-01T14:57:44;0.88;;;0.57;;
29370;SDS011;16357;52.188;7.838;2022-07-01T15:00:11;0.68;;;0.50;;
29370;SDS011;16357;52.188;7.838;2022-07-01T15:02:38;3.00;;;0.60;;
29370;SDS011;16357;52.188;7.838;2022-07-01T15:05:05;0.75;;;0.50;;
29370;SDS011;16357;52.188;7.838;2022-07-01T15:07:32;1.67;;;0.60;;
29370;SDS011;16357;52.188;7.838;2022-07-01T15:09:58;1.13;;;0.60;;
29370;SDS011;16357;52.188;7.838;2022-07-01T15:12:28;1.55;;;0.40;;
29370;SDS011;16357;52.188;7.838;2022-07-01T15:14:55;1.48;;;0.40;;
29370;SDS011;16357;52.188;7.838;2022-07-01T15:17:22;0.82;;;0.50;;